Time;durP1;ratioP1;P1;durP2;ratioP2;P2;SDS_P1;SDS_P2;PMS_P1;PMS_P2;Temp;Humidity;BMP_temperature;BMP_pressure;BME280_temperature;BME280_humidity;BME280_pressure;Samples;Min_cycle;Max_cycle;Signal;HPM_P1;HPM_P2
2023/06/30 00:00:12;;;;;;;1999.90;999.90;;;23.30;76.80;;;;;;5057366;28;20117;-73
2023/06/30 00:02:42;;;;;;;1999.90;999.90;;;23.40;76.50;;;;;;5057438;28;20469;-72
2023/06/30 00:05:11;;;;;;;1999.90;999.90;;;23.30;76.30;;;;;;5052577;28;20025;-74
2023/06/30 00:07:39;;;;;;;1999.90;999.90;;;23.50;76.80;;;;;;5058180;28;20025;-71
2023/06/30 00:10:08;;;;;;;1999.90;999.90;;;23.60;76.70;;;;;;5054652;28;20317;-75
2023/06/30 00:12:35;;;;;;;1999.90;999.90;;;23.80;75.30;;;;;;5056535;28;20374;-73
2023/06/30 00:15:03;;;;;;;1999.90;999.90;;;23.80;75.10;;;;;;5047091;28;20132;-72
2023/06/30 00:17:30;;;;;;;1999.90;999.90;;;23.90;75.70;;;;;;5050604;28;20078;-71
2023/06/30 00:19:58;;;;;;;1999.90;999.90;;;24.10;74.70;;;;;;5044424;28;20048;-72
2023/06/30 00:22:26;;;;;;;1999.90;999.90;;;24.50;73.80;;;;;;5048570;28;20039;-71
2023/06/30 00:24:58;;;;;;;1999.90;999.90;;;24.60;73.10;;;;;;5055692;28;20033;-71
2023/06/30 00:27:26;;;;;;;1999.90;999.90;;;24.40;74.30;;;;;;5062423;28;20074;-72
2023/06/30 00:29:53;;;;;;;1999.90;999.90;;;24.40;74.90;;;;;;5052229;28;20034;-71
2023/06/30 00:32:21;;;;;;;1999.90;999.90;;;24.70;74.00;;;;;;5048393;28;20091;-72
2023/06/30 00:34:48;;;;;;;1999.90;999.90;;;24.90;73.70;;;;;;5054656;28;20059;-73
2023/06/30 00:37:15;;;;;;;1999.90;999.90;;;25.20;72.50;;;;;;5052765;28;20029;-73
2023/06/30 00:39:43;;;;;;;1999.90;999.90;;;25.90;71.50;;;;;;5047286;28;20029;-74
2023/06/30 00:42:10;;;;;;;1999.90;999.90;;;25.50;71.20;;;;;;5047048;28;20116;-71
2023/06/30 00:44:37;;;;;;;1999.90;999.90;;;25.30;73.10;;;;;;5050637;28;20099;-72
2023/06/30 00:47:05;;;;;;;1999.90;999.90;;;25.30;73.50;;;;;;5054299;28;20032;-71
2023/06/30 00:49:33;;;;;;;1999.90;999.90;;;25.50;72.60;;;;;;5043070;28;20033;-70
2023/06/30 00:52:01;;;;;;;1999.90;999.90;;;25.60;72.30;;;;;;5048803;28;20052;-72
2023/06/30 00:54:28;;;;;;;1999.90;999.90;;;25.70;72.20;;;;;;5048187;28;20028;-73
2023/06/30 00:57:05;;;;;;;1999.90;999.90;;;26.20;70.50;;;;;;5048218;28;20550;-72
2023/06/30 00:59:32;;;;;;;1999.90;999.90;;;26.40;70.60;;;;;;5052333;28;20099;-73
2023/06/30 01:02:09;;;;;;;1999.90;999.90;;;26.40;71.20;;;;;;5046028;28;20025;-74
2023/06/30 01:04:49;;;;;;;1999.90;999.90;;;26.40;70.50;;;;;;5042763;28;20073;-72
2023/06/30 01:07:26;;;;;;;1999.90;999.90;;;26.90;70.60;;;;;;5057324;28;20140;-71
2023/06/30 01:10:09;;;;;;;1999.90;999.90;;;26.80;70.60;;;;;;5047636;28;20033;-71
2023/06/30 01:12:37;;;;;;;1999.90;999.90;;;26.90;71.00;;;;;;5051116;28;20037;-70
2023/06/30 01:15:07;;;;;;;1999.90;999.90;;;27.10;71.90;;;;;;5044404;28;20037;-71
2023/06/30 01:17:41;;;;;;;1999.90;999.90;;;27.50;71.50;;;;;;5051556;28;20064;-69
2023/06/30 01:20:11;;;;;;;1999.90;999.90;;;27.60;70.40;;;;;;5050025;28;20029;-70
2023/06/30 01:22:45;;;;;;;1999.90;999.90;;;27.70;70.00;;;;;;5050169;28;20131;-70
2023/06/30 01:25:25;;;;;;;1999.90;999.90;;;27.60;69.80;;;;;;5049160;28;20028;-69
2023/06/30 01:27:54;;;;;;;1999.90;999.90;;;27.70;69.60;;;;;;5051388;28;20051;-72
2023/06/30 01:30:21;;;;;;;1999.90;999.90;;;27.90;68.60;;;;;;5054220;28;20033;-70
2023/06/30 01:32:54;;;;;;;1999.90;999.90;;;27.30;68.20;;;;;;5055677;28;20064;-70
2023/06/30 01:35:26;;;;;;;1999.90;999.90;;;26.60;69.80;;;;;;5050511;28;20545;-68
2023/06/30 01:37:54;;;;;;;1999.90;999.90;;;26.50;70.10;;;;;;5050609;28;20032;-71
2023/06/30 01:40:22;;;;;;;1999.90;999.90;;;26.50;70.30;;;;;;5047360;28;20028;-73
2023/06/30 01:42:54;;;;;;;1999.90;999.90;;;26.50;70.60;;;;;;5054264;28;20053;-71
2023/06/30 01:45:24;;;;;;;1999.90;999.90;;;26.80;70.10;;;;;;5041949;28;20738;-71
2023/06/30 01:47:52;;;;;;;1999.90;999.90;;;27.10;69.80;;;;;;5041466;28;20036;-72
2023/06/30 01:50:20;;;;;;;1999.90;999.90;;;26.80;69.10;;;;;;5045918;28;20467;-73
2023/06/30 01:52:47;;;;;;;1999.90;999.90;;;26.60;69.50;;;;;;5043284;28;20341;-68
2023/06/30 01:55:15;;;;;;;1999.90;999.90;;;26.30;70.40;;;;;;5043752;28;20521;-72
2023/06/30 01:57:42;;;;;;;1999.90;999.90;;;26.50;71.50;;;;;;5046510;28;20487;-73
2023/06/30 02:00:10;;;;;;;1999.90;999.90;;;26.80;70.10;;;;;;5044639;28;20116;-68
2023/06/30 02:02:38;;;;;;;1999.90;999.90;;;26.90;70.20;;;;;;5049422;28;20617;-70
2023/06/30 02:05:06;;;;;;;1999.90;999.90;;;26.90;69.90;;;;;;5045056;28;20033;-71
2023/06/30 02:07:33;;;;;;;1999.90;999.90;;;27.00;70.30;;;;;;5060144;28;20071;-70
2023/06/30 02:10:01;;;;;;;1999.90;999.90;;;27.10;69.40;;;;;;5076297;28;20179;-70
2023/06/30 02:12:28;;;;;;;1999.90;999.90;;;27.20;69.70;;;;;;5053273;28;20037;-71
2023/06/30 02:14:56;;;;;;;1999.90;999.90;;;27.30;69.40;;;;;;5061941;28;20049;-71
2023/06/30 02:17:33;;;;;;;1999.90;999.90;;;27.50;68.70;;;;;;5051383;28;20567;-72
2023/06/30 02:20:02;;;;;;;1999.90;999.90;;;27.50;68.20;;;;;;5055654;28;20479;-71
2023/06/30 02:22:30;;;;;;;1999.90;999.90;;;27.10;69.00;;;;;;5048780;28;20033;-73
2023/06/30 02:24:57;;;;;;;1999.90;999.90;;;27.10;70.10;;;;;;5051545;28;20499;-75
2023/06/30 02:27:26;;;;;;;1999.90;999.90;;;27.20;69.40;;;;;;5054137;28;20025;-69
2023/06/30 02:29:53;;;;;;;1999.90;999.90;;;27.30;69.70;;;;;;5062544;28;20508;-70
2023/06/30 02:32:21;;;;;;;1999.90;999.90;;;27.40;69.20;;;;;;5053625;28;20468;-75
2023/06/30 02:34:48;;;;;;;1999.90;999.90;;;27.50;68.90;;;;;;5047356;28;20069;-75
2023/06/30 02:37:16;;;;;;;1999.90;999.90;;;27.20;68.60;;;;;;5048365;28;20029;-77
2023/06/30 02:39:43;;;;;;;1999.90;999.90;;;27.30;69.70;;;;;;5058123;28;20376;-75
2023/06/30 02:42:10;;;;;;;1999.90;999.90;;;27.20;69.10;;;;;;5051826;28;20025;-76
2023/06/30 02:44:37;;;;;;;1999.90;999.90;;;27.10;69.20;;;;;;5049377;28;20040;-75
2023/06/30 02:47:05;;;;;;;1999.90;999.90;;;26.70;70.00;;;;;;5052511;28;20021;-71
2023/06/30 02:49:32;;;;;;;1999.90;999.90;;;26.70;69.20;;;;;;5060155;28;20041;-69
2023/06/30 02:52:00;;;;;;;1999.90;999.90;;;26.30;69.20;;;;;;5055032;28;20029;-69
2023/06/30 02:54:27;;;;;;;1999.90;999.90;;;26.10;70.20;;;;;;5057390;28;20534;-70
2023/06/30 02:56:54;;;;;;;1999.90;999.90;;;25.90;70.50;;;;;;5055593;28;20081;-73
2023/06/30 02:59:21;;;;;;;1999.90;999.90;;;25.90;71.70;;;;;;5048443;28;20035;-73
2023/06/30 03:01:49;;;;;;;1999.90;999.90;;;25.70;71.00;;;;;;5058622;28;20033;-71
2023/06/30 03:04:16;;;;;;;1999.90;999.90;;;25.60;71.20;;;;;;5055045;28;20040;-75
2023/06/30 03:06:44;;;;;;;1999.90;999.90;;;25.30;70.50;;;;;;5054184;28;20123;-73
2023/06/30 03:09:11;;;;;;;1999.90;999.90;;;25.00;71.30;;;;;;5057943;28;20071;-78
2023/06/30 03:11:38;;;;;;;1999.90;999.90;;;24.60;71.60;;;;;;5049960;28;20083;-75
2023/06/30 03:14:06;;;;;;;1999.90;999.90;;;24.00;71.90;;;;;;5055225;28;20140;-75
2023/06/30 03:16:33;;;;;;;1999.90;999.90;;;23.70;73.70;;;;;;5055247;28;20043;-72
2023/06/30 03:19:00;;;;;;;1999.90;999.90;;;23.60;73.60;;;;;;5058239;28;20036;-75
2023/06/30 03:21:28;;;;;;;1999.90;999.90;;;23.40;73.80;;;;;;5051341;28;20033;-71
2023/06/30 03:23:56;;;;;;;1999.90;999.90;;;23.10;73.80;;;;;;5060019;28;20037;-72
2023/06/30 03:26:23;;;;;;;1999.90;999.90;;;22.80;73.70;;;;;;5057578;28;20031;-78
2023/06/30 03:28:51;;;;;;;1999.90;999.90;;;22.40;74.20;;;;;;5059032;28;20503;-79
2023/06/30 03:31:18;;;;;;;1999.90;999.90;;;21.90;75.10;;;;;;5059078;28;20023;-74
2023/06/30 03:33:46;;;;;;;1999.90;999.90;;;21.60;76.80;;;;;;5060164;28;20107;-75
2023/06/30 03:36:13;;;;;;;1999.90;999.90;;;21.20;76.50;;;;;;5058390;28;20476;-75
2023/06/30 03:38:41;;;;;;;1999.90;999.90;;;20.90;77.90;;;;;;5063802;28;20365;-77
2023/06/30 03:41:08;;;;;;;1999.90;999.90;;;20.50;78.10;;;;;;5066093;28;20033;-71
2023/06/30 03:43:35;;;;;;;1999.90;999.90;;;20.30;78.50;;;;;;5059107;28;20033;-73
2023/06/30 03:46:03;;;;;;;1999.90;999.90;;;20.10;79.60;;;;;;5047963;28;20142;-76
2023/06/30 03:48:30;;;;;;;1999.90;999.90;;;19.90;79.60;;;;;;5058568;28;20048;-77
2023/06/30 03:50:58;;;;;;;1999.90;999.90;;;19.50;80.30;;;;;;5058968;28;20048;-75
2023/06/30 03:53:25;;;;;;;1999.90;999.90;;;19.40;81.60;;;;;;5049932;28;20033;-69
2023/06/30 03:55:52;;;;;;;1999.90;999.90;;;19.20;81.00;;;;;;5050115;28;20040;-74
2023/06/30 03:58:20;;;;;;;1999.90;999.90;;;19.10;81.90;;;;;;5051739;28;20063;-76
2023/06/30 04:00:47;;;;;;;1999.90;999.90;;;19.00;81.80;;;;;;5048466;28;20527;-72
2023/06/30 04:03:14;;;;;;;1999.90;999.90;;;18.90;82.30;;;;;;5055978;28;20099;-77
2023/06/30 04:05:42;;;;;;;1999.90;999.90;;;18.80;82.30;;;;;;5046789;28;20502;-75
2023/06/30 04:08:09;;;;;;;1999.90;999.90;;;18.70;83.40;;;;;;5058531;28;20054;-76
2023/06/30 04:10:36;;;;;;;1999.90;999.90;;;18.60;82.50;;;;;;5054477;28;20013;-74
2023/06/30 04:13:07;;;;;;;1999.90;999.90;;;18.60;83.30;;;;;;5054812;28;20432;-78
2023/06/30 04:15:34;;;;;;;1999.90;999.90;;;18.50;83.90;;;;;;5052784;28;20199;-74
2023/06/30 04:18:02;;;;;;;1999.90;999.90;;;18.50;84.00;;;;;;5044663;28;20036;-77
2023/06/30 04:20:29;;;;;;;1999.90;999.90;;;18.50;84.40;;;;;;5056166;28;20475;-75
2023/06/30 04:22:57;;;;;;;1999.90;999.90;;;18.50;84.00;;;;;;5058380;28;20041;-71
2023/06/30 04:25:24;;;;;;;1999.90;999.90;;;18.40;83.10;;;;;;5045806;28;20100;-75
2023/06/30 04:27:51;;;;;;;1999.90;999.90;;;18.40;84.30;;;;;;5044338;28;20029;-76
2023/06/30 04:30:19;;;;;;;1999.90;999.90;;;18.30;83.70;;;;;;5051838;28;20014;-73
2023/06/30 04:32:46;;;;;;;1999.90;999.90;;;18.30;84.00;;;;;;5050864;28;20033;-77
2023/06/30 04:35:14;;;;;;;1999.90;999.90;;;18.20;84.30;;;;;;5047467;28;20021;-75
2023/06/30 04:37:41;;;;;;;1999.90;999.90;;;18.20;84.80;;;;;;5051292;28;20119;-74
2023/06/30 04:40:09;;;;;;;1999.90;999.90;;;18.20;84.90;;;;;;5050235;28;20033;-77
2023/06/30 04:42:37;;;;;;;1999.90;999.90;;;18.10;84.80;;;;;;5056123;28;20492;-71
2023/06/30 04:45:06;;;;;;;1999.90;999.90;;;18.10;85.20;;;;;;5051782;28;20024;-77
2023/06/30 04:47:33;;;;;;;1999.90;999.90;;;18.00;85.30;;;;;;5053850;28;20036;-75
2023/06/30 04:50:01;;;;;;;1999.90;999.90;;;18.10;85.40;;;;;;5048860;28;20024;-71
2023/06/30 04:52:29;;;;;;;1999.90;999.90;;;18.10;85.20;;;;;;5052258;28;20063;-73
2023/06/30 04:54:57;;;;;;;1999.90;999.90;;;18.00;85.00;;;;;;5051273;28;20503;-70
2023/06/30 04:57:24;;;;;;;1999.90;999.90;;;18.10;84.40;;;;;;5054308;28;20051;-74
2023/06/30 04:59:54;;;;;;;1999.90;999.90;;;18.00;84.90;;;;;;5048774;28;20036;-73
2023/06/30 05:02:22;;;;;;;1999.90;999.90;;;17.90;84.90;;;;;;5056202;28;20535;-73
2023/06/30 05:04:49;;;;;;;1999.90;999.90;;;17.80;85.80;;;;;;5043328;28;20103;-74
2023/06/30 05:07:16;;;;;;;1999.90;999.90;;;17.70;86.00;;;;;;5057122;28;20040;-73
2023/06/30 05:09:44;;;;;;;1999.90;999.90;;;17.70;85.70;;;;;;5055847;28;20411;-75
2023/06/30 05:12:12;;;;;;;1999.90;999.90;;;17.70;86.60;;;;;;5059439;28;20027;-73
2023/06/30 05:14:40;;;;;;;1999.90;999.90;;;17.60;86.80;;;;;;5053679;28;20111;-74
2023/06/30 05:17:07;;;;;;;1999.90;999.90;;;17.60;87.60;;;;;;5045498;28;20163;-76
2023/06/30 05:19:34;;;;;;;1999.90;999.90;;;17.50;87.80;;;;;;5051600;28;20053;-75
2023/06/30 05:22:02;;;;;;;1999.90;999.90;;;17.50;87.70;;;;;;5044042;28;20033;-72
2023/06/30 05:24:29;;;;;;;1999.90;999.90;;;17.50;87.90;;;;;;5045057;28;20052;-73
2023/06/30 05:26:57;;;;;;;1999.90;999.90;;;17.40;88.10;;;;;;5051803;28;20052;-74
2023/06/30 05:29:24;;;;;;;1999.90;999.90;;;17.40;88.20;;;;;;5054080;28;20056;-74
2023/06/30 05:31:52;;;;;;;1999.90;999.90;;;17.30;88.40;;;;;;5046081;28;20052;-73
2023/06/30 05:34:19;;;;;;;1999.90;999.90;;;17.20;88.60;;;;;;5055431;28;20302;-77
2023/06/30 05:36:46;;;;;;;1999.90;999.90;;;17.20;88.80;;;;;;5049598;28;20033;-76
2023/06/30 05:39:14;;;;;;;1999.90;999.90;;;17.20;89.30;;;;;;5052089;28;20533;-72
2023/06/30 05:41:41;;;;;;;1999.90;999.90;;;17.10;89.40;;;;;;5050902;28;20032;-76
2023/06/30 05:44:09;;;;;;;1999.90;999.90;;;17.00;90.00;;;;;;5046081;28;20037;-76
2023/06/30 05:46:39;;;;;;;1999.90;999.90;;;17.00;89.70;;;;;;5052499;28;20044;-71
2023/06/30 05:49:07;;;;;;;1999.90;999.90;;;16.90;90.00;;;;;;5054891;28;20024;-76
2023/06/30 05:51:35;;;;;;;1999.90;999.90;;;16.90;90.10;;;;;;5053135;28;20029;-72
2023/06/30 05:54:04;;;;;;;1999.90;999.90;;;16.90;89.80;;;;;;5053681;28;20064;-75
2023/06/30 05:56:32;;;;;;;1999.90;999.90;;;16.80;90.10;;;;;;5051124;28;20029;-74
2023/06/30 05:58:59;;;;;;;1999.90;999.90;;;16.80;90.20;;;;;;5055290;28;20029;-76
2023/06/30 06:01:26;;;;;;;1999.90;999.90;;;16.80;90.20;;;;;;5051594;28;20029;-73
2023/06/30 06:03:54;;;;;;;1999.90;999.90;;;16.80;90.30;;;;;;5056277;28;20083;-76
2023/06/30 06:06:22;;;;;;;1999.90;999.90;;;16.90;90.30;;;;;;5057945;28;20072;-73
2023/06/30 06:08:50;;;;;;;1999.90;999.90;;;16.90;90.30;;;;;;5052826;28;20025;-73
2023/06/30 06:11:17;;;;;;;1999.90;999.90;;;16.90;90.50;;;;;;5050971;28;20067;-76
2023/06/30 06:13:44;;;;;;;1999.90;999.90;;;17.00;90.40;;;;;;5052366;28;20040;-71
2023/06/30 06:16:12;;;;;;;1999.90;999.90;;;17.10;90.60;;;;;;5051650;28;20029;-71
2023/06/30 06:18:39;;;;;;;1999.90;999.90;;;17.10;90.40;;;;;;5062065;28;20119;-71
2023/06/30 06:21:06;;;;;;;1999.90;999.90;;;17.20;90.30;;;;;;5051997;28;20083;-71
2023/06/30 06:23:34;;;;;;;1999.90;999.90;;;17.20;90.10;;;;;;5055326;28;20043;-73
2023/06/30 06:26:02;;;;;;;1999.90;999.90;;;17.20;90.00;;;;;;5058061;28;20021;-73
2023/06/30 06:28:29;;;;;;;1999.90;999.90;;;17.20;89.80;;;;;;5061284;28;20063;-71
2023/06/30 06:30:57;;;;;;;1999.90;999.90;;;17.10;90.00;;;;;;5057489;28;20025;-71
2023/06/30 06:33:24;;;;;;;1999.90;999.90;;;17.10;90.10;;;;;;5057557;28;20119;-73
2023/06/30 06:35:52;;;;;;;1999.90;999.90;;;17.00;90.20;;;;;;5053041;28;20533;-72
2023/06/30 06:38:20;;;;;;;1999.90;999.90;;;16.80;90.40;;;;;;5060277;28;20387;-77
2023/06/30 06:40:48;;;;;;;1999.90;999.90;;;16.60;90.60;;;;;;5056960;28;20045;-70
2023/06/30 06:43:15;;;;;;;1999.90;999.90;;;16.40;90.80;;;;;;5056816;28;20045;-70
2023/06/30 06:45:42;;;;;;;1999.90;999.90;;;16.10;91.00;;;;;;5063331;28;20037;-74
2023/06/30 06:48:39;;;;;;;1999.90;999.90;;;15.90;91.20;;;;;;5058568;28;20025;-73
2023/06/30 06:51:07;;;;;;;1999.90;999.90;;;15.70;91.40;;;;;;5035630;28;20029;-76
2023/06/30 06:53:35;;;;;;;1999.90;999.90;;;15.60;91.80;;;;;;5056847;28;20486;-71
2023/06/30 06:56:04;;;;;;;1999.90;999.90;;;15.40;92.00;;;;;;5059275;28;20033;-72
2023/06/30 06:58:36;;;;;;;1999.90;999.90;;;15.20;92.20;;;;;;5054805;28;20024;-72
2023/06/30 07:01:03;;;;;;;1999.90;999.90;;;15.10;92.50;;;;;;5053513;28;20033;-76
2023/06/30 07:03:31;;;;;;;1999.90;999.90;;;15.10;92.70;;;;;;5057555;28;20021;-73
2023/06/30 07:05:59;;;;;;;1999.90;999.90;;;15.00;92.80;;;;;;5049512;28;20234;-73
2023/06/30 07:08:28;;;;;;;1999.90;999.90;;;14.80;93.10;;;;;;5059748;28;20027;-75
2023/06/30 07:10:56;;;;;;;1999.90;999.90;;;14.70;93.30;;;;;;5054190;28;20033;-72
2023/06/30 07:13:23;;;;;;;1999.90;999.90;;;14.60;93.50;;;;;;5055396;28;20025;-78
2023/06/30 07:15:51;;;;;;;1999.90;999.90;;;14.50;93.70;;;;;;5048574;28;20087;-72
2023/06/30 07:18:19;;;;;;;1999.90;999.90;;;14.40;93.70;;;;;;5057568;28;20025;-75
2023/06/30 07:20:54;;;;;;;1999.90;999.90;;;14.20;93.90;;;;;;5060593;28;20047;-73
2023/06/30 07:23:22;;;;;;;1999.90;999.90;;;14.10;94.10;;;;;;5050855;28;20045;-70
2023/06/30 07:25:50;;;;;;;1999.90;999.90;;;14.00;94.30;;;;;;5056480;28;20068;-75
2023/06/30 07:28:18;;;;;;;1999.90;999.90;;;14.00;94.70;;;;;;5050559;28;20029;-74
2023/06/30 07:30:46;;;;;;;1999.90;999.90;;;13.90;95.10;;;;;;5051640;28;20029;-70
2023/06/30 07:33:13;;;;;;;1999.90;999.90;;;13.80;95.00;;;;;;5059478;28;20032;-75
2023/06/30 07:35:41;;;;;;;1999.90;999.90;;;13.70;95.10;;;;;;5051116;28;20020;-73
2023/06/30 07:38:08;;;;;;;1999.90;999.90;;;13.60;95.10;;;;;;5049594;28;20017;-72
2023/06/30 07:40:35;;;;;;;1999.90;999.90;;;13.50;95.40;;;;;;5052598;28;20045;-74
2023/06/30 07:43:03;;;;;;;1999.90;999.90;;;13.40;95.40;;;;;;5053803;28;20440;-74
2023/06/30 07:45:31;;;;;;;1999.90;999.90;;;13.30;95.50;;;;;;5042770;28;20063;-74
2023/06/30 07:47:58;;;;;;;1999.90;999.90;;;13.30;95.60;;;;;;5052829;28;20100;-71
2023/06/30 07:50:25;;;;;;;1999.90;999.90;;;13.20;95.60;;;;;;5054190;28;20021;-70
2023/06/30 07:52:53;;;;;;;1999.90;999.90;;;13.40;95.20;;;;;;5053672;28;20032;-70
2023/06/30 07:55:20;;;;;;;1999.90;999.90;;;13.40;94.90;;;;;;5050819;28;20033;-71
2023/06/30 07:57:48;;;;;;;1999.90;999.90;;;13.40;94.90;;;;;;5052536;28;20492;-70
2023/06/30 08:00:20;;;;;;;1999.90;999.90;;;13.40;94.90;;;;;;5056102;28;20017;-72
2023/06/30 08:02:48;;;;;;;1999.90;999.90;;;13.30;95.00;;;;;;5047172;28;20067;-72
2023/06/30 08:05:16;;;;;;;1999.90;999.90;;;13.20;95.20;;;;;;5052113;28;20108;-72
2023/06/30 08:07:45;;;;;;;1999.90;999.90;;;13.20;95.20;;;;;;5061849;28;20145;-70
2023/06/30 08:10:12;;;;;;;1999.90;999.90;;;13.10;95.30;;;;;;5051008;28;20032;-72
2023/06/30 08:12:40;;;;;;;1999.90;999.90;;;13.00;95.30;;;;;;5053690;28;20021;-72
2023/06/30 08:15:07;;;;;;;1999.90;999.90;;;13.00;95.40;;;;;;5047654;28;20028;-73
2023/06/30 08:17:35;;;;;;;1999.90;999.90;;;13.00;95.50;;;;;;5055403;28;20024;-76
2023/06/30 08:20:02;;;;;;;1999.90;999.90;;;13.00;95.50;;;;;;5055434;28;20056;-72
2023/06/30 08:22:30;;;;;;;1999.90;999.90;;;12.90;95.40;;;;;;5057370;28;20044;-77
2023/06/30 08:24:57;;;;;;;1999.90;999.90;;;12.90;95.40;;;;;;5052893;28;20482;-73
2023/06/30 08:27:25;;;;;;;1999.90;999.90;;;12.80;95.50;;;;;;5059896;28;20151;-77
2023/06/30 08:29:52;;;;;;;1999.90;999.90;;;12.80;95.50;;;;;;5057635;28;20039;-74
2023/06/30 08:32:21;;;;;;;1999.90;999.90;;;12.70;95.60;;;;;;5054077;28;20048;-75
2023/06/30 08:34:48;;;;;;;1999.90;999.90;;;12.70;95.70;;;;;;5055659;28;20483;-73
2023/06/30 08:37:15;;;;;;;1999.90;999.90;;;12.60;95.90;;;;;;5057457;28;20029;-70
2023/06/30 08:39:43;;;;;;;1999.90;999.90;;;12.50;96.00;;;;;;5058280;28;20104;-71
2023/06/30 08:42:11;;;;;;;1999.90;999.90;;;12.50;96.20;;;;;;5053292;28;20029;-76
2023/06/30 08:44:43;;;;;;;1999.90;999.90;;;12.40;96.40;;;;;;5058255;28;20033;-72
2023/06/30 08:47:14;;;;;;;1999.90;999.90;;;12.30;96.80;;;;;;5050999;28;20037;-72
2023/06/30 08:49:42;;;;;;;1999.90;999.90;;;12.30;96.70;;;;;;5046906;28;20775;-73
2023/06/30 08:52:09;;;;;;;1999.90;999.90;;;12.20;96.70;;;;;;5055135;28;20123;-71
2023/06/30 08:54:37;;;;;;;1999.90;999.90;;;12.20;96.70;;;;;;5048972;28;20029;-77
2023/06/30 08:57:05;;;;;;;1999.90;999.90;;;12.20;96.70;;;;;;5059258;28;20048;-72
2023/06/30 08:59:33;;;;;;;1999.90;999.90;;;12.20;96.70;;;;;;5054422;28;20116;-77
2023/06/30 09:02:02;;;;;;;1999.90;999.90;;;12.20;97.00;;;;;;5054760;28;20471;-81
2023/06/30 09:04:30;;;;;;;1999.90;999.90;;;12.10;97.20;;;;;;5057708;28;20048;-76
2023/06/30 09:07:00;;;;;;;1999.90;999.90;;;12.10;97.20;;;;;;5055878;28;20040;-78
2023/06/30 09:09:44;;;;;;;1999.90;999.90;;;12.00;97.20;;;;;;5065389;28;20031;-77
2023/06/30 09:12:12;;;;;;;1999.90;999.90;;;12.00;97.20;;;;;;5056226;28;20036;-72
2023/06/30 09:14:41;;;;;;;1999.90;999.90;;;11.90;97.50;;;;;;5055022;28;20097;-77
2023/06/30 09:17:08;;;;;;;1999.90;999.90;;;11.80;97.70;;;;;;5052073;28;20063;-73
2023/06/30 09:19:35;;;;;;;1999.90;999.90;;;11.70;98.00;;;;;;5056859;28;20064;-73
2023/06/30 09:22:05;;;;;;;1999.90;999.90;;;11.60;98.20;;;;;;5048576;28;20099;-77
2023/06/30 09:24:32;;;;;;;1999.90;999.90;;;11.50;98.40;;;;;;5053109;28;20041;-78
2023/06/30 09:26:59;;;;;;;1999.90;999.90;;;11.40;98.60;;;;;;5049649;28;20489;-79
2023/06/30 09:29:36;;;;;;;1999.90;999.90;;;11.40;98.90;;;;;;5046503;28;20021;-77
2023/06/30 09:32:03;;;;;;;;;;;11.30;99.20;;;;;;5047778;28;20028;-78
2023/06/30 09:34:31;;;;;;;1999.90;999.90;;;11.20;99.40;;;;;;5047435;28;20385;-73
2023/06/30 09:36:58;;;;;;;1999.90;999.90;;;11.20;99.80;;;;;;5049551;28;20029;-77
2023/06/30 09:39:26;;;;;;;1999.90;999.90;;;11.00;99.90;;;;;;5041143;28;20025;-74
2023/06/30 09:41:53;;;;;;;1999.90;999.90;;;10.90;99.90;;;;;;5056779;28;20479;-77
2023/06/30 09:44:23;;;;;;;1999.90;999.90;;;10.80;99.90;;;;;;5041710;28;20045;-81
2023/06/30 09:46:52;;;;;;;1999.90;999.90;;;10.80;99.90;;;;;;5046050;28;20029;-72
2023/06/30 09:49:39;;;;;;;1999.90;999.90;;;10.80;99.90;;;;;;5048379;28;20039;-74
2023/06/30 09:52:07;;;;;;;1999.90;999.90;;;10.80;99.90;;;;;;5059457;28;20020;-78
2023/06/30 09:54:36;;;;;;;1999.90;999.90;;;10.80;99.90;;;;;;5055684;28;20113;-74
2023/06/30 09:57:05;;;;;;;1999.90;999.90;;;10.70;99.90;;;;;;5061725;28;20028;-76
2023/06/30 09:59:33;;;;;;;1999.90;999.90;;;10.60;99.90;;;;;;5056741;28;20025;-80
2023/06/30 10:02:02;;;;;;;1999.90;999.90;;;10.50;99.90;;;;;;5060017;28;20032;-80
2023/06/30 10:04:30;;;;;;;1999.90;999.90;;;10.40;99.90;;;;;;5055181;28;20111;-76
2023/06/30 10:06:58;;;;;;;1999.90;999.90;;;10.20;99.90;;;;;;5056033;28;20082;-79
2023/06/30 10:09:26;;;;;;;1999.90;999.90;;;10.10;99.90;;;;;;5055954;28;20035;-77
2023/06/30 10:11:58;;;;;;;1999.90;999.90;;;10.00;99.90;;;;;;5053666;28;20560;-77
2023/06/30 10:14:30;;;;;;;1999.90;999.90;;;9.90;99.90;;;;;;5055236;28;20032;-75
2023/06/30 10:17:00;;;;;;;1999.90;999.90;;;9.80;99.90;;;;;;5047710;28;20025;-70
2023/06/30 10:19:29;;;;;;;1999.90;999.90;;;9.70;99.90;;;;;;5057205;28;20028;-71
2023/06/30 10:21:57;;;;;;;1999.90;999.90;;;9.60;99.90;;;;;;5049892;28;20107;-76
2023/06/30 10:24:29;;;;;;;1999.90;999.90;;;9.60;99.90;;;;;;5052260;28;20060;-78
2023/06/30 10:26:58;;;;;;;1999.90;999.90;;;9.50;99.90;;;;;;5048441;28;20032;-73
2023/06/30 10:29:26;;;;;;;1999.90;999.90;;;9.50;99.90;;;;;;5058901;28;20039;-77
2023/06/30 10:31:54;;;;;;;1999.90;999.90;;;9.50;99.90;;;;;;5056313;28;20406;-78
2023/06/30 10:34:22;;;;;;;1999.90;999.90;;;9.50;99.90;;;;;;5057243;28;20029;-75
2023/06/30 10:36:49;;;;;;;1999.90;999.90;;;9.40;99.90;;;;;;5061761;28;20036;-76
2023/06/30 10:39:17;;;;;;;1999.90;999.90;;;9.40;99.90;;;;;;5060128;28;20092;-77
2023/06/30 10:41:51;;;;;;;1999.90;999.90;;;9.30;99.90;;;;;;5060169;28;20059;-76
2023/06/30 10:44:20;;;;;;;1999.90;999.90;;;9.30;99.90;;;;;;5057069;28;20064;-71
2023/06/30 10:46:57;;;;;;;1999.90;999.90;;;9.20;99.90;;;;;;5065610;28;20106;-73
2023/06/30 10:49:35;;;;;;;1999.90;999.90;;;9.10;99.90;;;;;;5050714;28;20392;-72
2023/06/30 10:52:09;;;;;;;1999.90;999.90;;;9.10;99.90;;;;;;5052085;28;20082;-76
2023/06/30 10:54:46;;;;;;;1999.90;999.90;;;9.10;99.90;;;;;;5053443;28;20032;-76
2023/06/30 10:57:22;;;;;;;1999.90;999.90;;;9.10;99.90;;;;;;5059403;28;20029;-74
2023/06/30 11:00:03;;;;;;;;;;;9.10;99.90;;;;;;5051897;28;20039;-76
2023/06/30 11:02:33;;;;;;;1999.90;999.90;;;9.10;99.90;;;;;;5066580;28;20448;-72
2023/06/30 11:05:21;;;;;;;1999.90;999.90;;;9.10;99.90;;;;;;5047698;28;20124;-75
2023/06/30 11:07:52;;;;;;;1999.90;999.90;;;8.90;99.90;;;;;;5053688;28;20051;-76
2023/06/30 11:10:44;;;;;;;1999.90;999.90;;;8.90;99.90;;;;;;5060727;28;20098;-77
2023/06/30 11:13:11;;;;;;;1999.90;999.90;;;8.80;99.90;;;;;;5053980;28;20064;-72
2023/06/30 11:15:39;;;;;;;1999.90;999.90;;;8.80;99.90;;;;;;5057609;28;20056;-75
2023/06/30 11:18:23;;;;;;;1999.90;999.90;;;8.80;99.90;;;;;;5050912;28;20036;-75
2023/06/30 11:21:03;;;;;;;1999.90;999.90;;;8.80;99.90;;;;;;5056560;28;20027;-75
2023/06/30 11:23:41;;;;;;;1999.90;999.90;;;8.80;99.90;;;;;;5049878;28;20033;-76
2023/06/30 11:26:18;;;;;;;1999.90;999.90;;;8.80;99.90;;;;;;5046339;28;20373;-75
2023/06/30 11:28:51;;;;;;;1999.90;999.90;;;8.70;99.90;;;;;;5055510;28;20392;-75
2023/06/30 11:31:19;;;;;;;1999.90;999.90;;;8.70;99.90;;;;;;5058949;28;20025;-72
2023/06/30 11:33:47;;;;;;;1999.90;999.90;;;8.60;99.90;;;;;;5056593;28;20063;-76
2023/06/30 11:36:16;;;;;;;1999.90;999.90;;;8.60;99.90;;;;;;5052643;28;20024;-78
2023/06/30 11:38:51;;;;;;;1999.90;999.90;;;8.60;99.90;;;;;;5058701;28;20024;-77
2023/06/30 11:41:19;;;;;;;1999.90;999.90;;;8.50;99.90;;;;;;5055787;28;20032;-73
2023/06/30 11:43:53;;;;;;;1999.90;999.90;;;8.50;99.90;;;;;;5066319;28;20487;-76
2023/06/30 11:46:21;;;;;;;1999.90;999.90;;;8.40;99.90;;;;;;5054026;28;20357;-74
2023/06/30 11:48:49;;;;;;;1999.90;999.90;;;8.40;99.90;;;;;;5055048;28;20071;-74
2023/06/30 11:51:18;;;;;;;1999.90;999.90;;;8.40;99.90;;;;;;5050075;28;20143;-75
2023/06/30 11:53:49;;;;;;;1999.90;999.90;;;8.30;99.90;;;;;;5060401;28;20637;-74
2023/06/30 11:56:20;;;;;;;1999.90;999.90;;;8.20;99.90;;;;;;5051569;28;20108;-73
2023/06/30 11:58:54;;;;;;;1999.90;999.90;;;8.20;99.90;;;;;;5059310;28;20029;-79
2023/06/30 12:01:21;;;;;;;1999.90;999.90;;;8.10;99.90;;;;;;5057767;28;20033;-71
2023/06/30 12:03:59;;;;;;;1999.90;999.90;;;8.10;99.90;;;;;;5058286;28;20131;-76
2023/06/30 12:06:31;;;;;;;1999.90;999.90;;;8.10;99.90;;;;;;5059836;28;20037;-77
2023/06/30 12:08:58;;;;;;;1999.90;999.90;;;8.00;99.90;;;;;;5057736;28;20020;-77